KDNN/DNN METAR and TAF weather

Enter ICAO airport designator
Station Type Date Time Source
KDNN METAR 2019/02/20 07:35 UTC NOAA

KDNN 200735Z AUTO 17010G19KT 10SM OVC024 07/04 A3018 RMK AO2


Station Type Date Time Source
KDNN Decoded METAR 2019/02/20 07:35 UTC NOAA

Dalton, Dalton Municipal Airport, GA, United States (KDNN) 34-43-18N 084-52-09W
Feb 20, 2019 - 02:35 AM EST / 2019.02.20 0735 UTC
Wind: from the S (170 degrees) at 12 MPH (10 KT) gusting to 22 MPH (19 KT):0
Visibility: 10 mile(s):0
Sky conditions: overcast
Temperature: 44 F (7 C)
Dew Point: 39 F (4 C)
Relative Humidity: 81%
Pressure (altimeter): 30.18 in. Hg (1022 hPa)
ob: KDNN 200735Z AUTO 17010G19KT 10SM OVC024 07/04 A3018 RMK AO2
cycle: 7

Station Type Date Time Source
KDNN TAF UTC NOAA

Error!


Example: see airport list